createdAt,value
2019-03-22T00:01:18.926Z,162.23
2019-03-22T00:03:49.282Z,163.00
2019-03-22T00:06:19.314Z,159.03
2019-03-22T00:08:49.287Z,174.33
2019-03-22T00:11:19.286Z,164.93
2019-03-22T00:13:49.917Z,163.53
2019-03-22T00:16:19.889Z,178.90
2019-03-22T00:18:49.888Z,167.33
2019-03-22T00:21:20.033Z,178.73
2019-03-22T00:23:49.954Z,163.30
2019-03-22T00:26:19.861Z,191.33
2019-03-22T00:28:49.974Z,172.17
2019-03-22T00:31:20.393Z,187.23
2019-03-22T00:33:50.415Z,176.50
2019-03-22T00:36:20.429Z,198.73
2019-03-22T00:38:50.416Z,193.17
2019-03-22T00:41:20.401Z,184.33
2019-03-22T00:43:50.749Z,184.77
2019-03-22T00:46:21.129Z,186.77
2019-03-22T00:48:51.550Z,214.47
2019-03-22T00:51:21.446Z,216.10
2019-03-22T00:53:51.444Z,196.37
2019-03-22T00:56:21.526Z,200.30
2019-03-22T00:58:52.021Z,207.73
2019-03-22T01:01:22.082Z,187.43
2019-03-22T01:03:52.441Z,213.37
2019-03-22T01:06:22.450Z,219.67
2019-03-22T01:08:52.505Z,211.07
2019-03-22T01:11:22.800Z,190.63
2019-03-22T01:13:53.404Z,179.00
2019-03-22T01:16:23.392Z,203.83
2019-03-22T01:18:53.422Z,194.43
2019-03-22T01:21:23.436Z,212.67
2019-03-22T01:23:53.434Z,227.23
2019-03-22T01:26:23.416Z,224.47
2019-03-22T01:28:53.423Z,257.83
2019-03-22T01:31:23.438Z,274.43
2019-03-22T01:33:53.420Z,296.03
2019-03-22T01:36:23.799Z,340.50
2019-03-22T01:38:53.862Z,305.70
2019-03-22T01:41:23.875Z,260.87
2019-03-22T01:43:53.958Z,357.63
2019-03-22T01:46:24.060Z,326.77
2019-03-22T01:48:54.122Z,382.33
2019-03-22T01:51:24.397Z,363.20
2019-03-22T01:53:54.341Z,309.40
2019-03-22T01:56:24.747Z,342.80
2019-03-22T01:58:55.680Z,351.53
2019-03-22T02:01:25.693Z,348.73
2019-03-22T02:03:55.653Z,324.30
2019-03-22T02:06:25.659Z,419.90
2019-03-22T02:08:55.656Z,327.90
2019-03-22T02:11:26.037Z,334.80
2019-03-22T02:13:56.633Z,374.37
2019-03-22T02:16:26.573Z,341.10
2019-03-22T02:18:56.570Z,343.13
2019-03-22T02:21:27.077Z,460.90
2019-03-22T02:23:57.494Z,297.47
2019-03-22T02:26:27.573Z,436.17
2019-03-22T02:28:57.542Z,413.70
2019-03-22T02:31:27.878Z,393.27
2019-03-22T02:33:58.318Z,327.47
2019-03-22T02:36:28.339Z,421.17
2019-03-22T02:38:58.313Z,383.33
2019-03-22T02:41:28.375Z,514.13
2019-03-22T02:43:58.388Z,451.90
2019-03-22T02:46:28.437Z,416.10
2019-03-22T02:48:58.404Z,463.83
2019-03-22T02:51:28.849Z,527.10
2019-03-22T02:53:58.859Z,445.07
2019-03-22T02:56:28.891Z,423.00
2019-03-22T02:58:59.465Z,386.23
2019-03-22T03:01:29.776Z,414.87
2019-03-22T03:03:59.785Z,506.60
2019-03-22T03:06:30.143Z,462.57
2019-03-22T03:09:00.095Z,537.67
2019-03-22T03:11:30.058Z,384.90
2019-03-22T03:14:00.097Z,475.40
2019-03-22T03:16:30.054Z,592.83
2019-03-22T03:19:00.054Z,480.80
2019-03-22T03:21:30.782Z,403.93
2019-03-22T03:24:00.792Z,429.90
2019-03-22T03:26:30.757Z,471.57
2019-03-22T03:29:00.799Z,560.63
2019-03-22T03:31:30.713Z,541.77
2019-03-22T03:34:00.991Z,461.63
2019-03-22T03:36:34.803Z,423.97
2019-03-22T03:39:04.348Z,448.67
2019-03-22T03:41:34.309Z,453.10
2019-03-22T03:44:04.385Z,459.03
2019-03-22T03:46:34.804Z,544.73
2019-03-22T03:49:04.955Z,511.37
2019-03-22T03:51:35.005Z,484.97
2019-03-22T03:54:04.999Z,482.67
2019-03-22T03:56:35.417Z,514.50
2019-03-22T03:59:05.707Z,434.73
2019-03-22T04:01:35.645Z,584.00
2019-03-22T04:04:06.054Z,452.67
2019-03-22T04:06:36.020Z,486.17
2019-03-22T04:09:08.720Z,388.77
2019-03-22T04:11:38.831Z,369.47
2019-03-22T04:14:08.774Z,544.10
2019-03-22T04:16:39.170Z,448.23
2019-03-22T04:19:09.262Z,399.23
2019-03-22T04:21:39.258Z,357.87
2019-03-22T04:24:09.194Z,487.87
2019-03-22T04:26:39.262Z,581.93
2019-03-22T04:29:09.309Z,402.87
2019-03-22T04:31:39.346Z,356.00
2019-03-22T04:34:09.446Z,601.73
2019-03-22T04:36:39.751Z,522.87
2019-03-22T04:39:09.935Z,544.57
2019-03-22T04:41:39.908Z,482.20
2019-03-22T04:44:09.990Z,537.80
2019-03-22T04:46:42.242Z,404.70
2019-03-22T04:49:13.591Z,515.00
2019-03-22T04:51:45.291Z,509.40
2019-03-22T04:54:18.037Z,626.10
2019-03-22T04:56:50.239Z,449.80
2019-03-22T04:59:20.867Z,476.17
2019-03-22T05:01:53.135Z,557.43
2019-03-22T05:04:25.284Z,507.70
2019-03-22T05:06:56.879Z,465.23
2019-03-22T05:09:29.497Z,424.43
2019-03-22T05:12:03.409Z,426.87
2019-03-22T05:14:36.610Z,410.53
2019-03-22T05:17:08.158Z,272.10
2019-03-22T05:19:41.049Z,338.97
2019-03-22T05:22:14.118Z,257.30
2019-03-22T05:24:47.088Z,356.27
2019-03-22T05:27:18.060Z,378.63
2019-03-22T05:29:50.033Z,502.03
2019-03-22T05:32:20.404Z,452.43
2019-03-22T05:34:50.366Z,445.77
2019-03-22T05:37:20.400Z,429.03
2019-03-22T05:39:50.451Z,356.53
2019-03-22T05:42:20.834Z,573.77
2019-03-22T05:44:51.127Z,443.97
2019-03-22T05:47:21.125Z,361.43
2019-03-22T05:49:51.571Z,467.47
2019-03-22T05:52:21.572Z,399.13
2019-03-22T05:54:51.566Z,299.40
2019-03-22T05:57:21.950Z,296.43
2019-03-22T05:59:52.064Z,353.43
2019-03-22T06:02:23.282Z,416.60
2019-03-22T06:04:53.142Z,470.37
2019-03-22T06:07:23.182Z,292.77
2019-03-22T06:09:53.167Z,260.10
2019-03-22T06:12:23.183Z,312.70
2019-03-22T06:14:54.039Z,277.47
2019-03-22T06:17:24.314Z,436.40
2019-03-22T06:19:54.457Z,381.30
2019-03-22T06:22:24.842Z,256.20
2019-03-22T06:24:54.880Z,264.70
2019-03-22T06:27:25.478Z,291.97
2019-03-22T06:29:55.457Z,415.37
2019-03-22T06:32:25.806Z,355.90
2019-03-22T06:34:56.283Z,344.83
2019-03-22T06:37:26.262Z,319.13
2019-03-22T06:39:56.228Z,277.77
2019-03-22T06:42:26.533Z,325.73
2019-03-22T06:44:56.898Z,324.70
2019-03-22T06:47:26.914Z,296.90
2019-03-22T06:49:56.912Z,292.87
2019-03-22T06:52:27.733Z,294.60
2019-03-22T06:54:58.689Z,251.27
2019-03-22T06:57:28.706Z,264.47
2019-03-22T07:00:06.298Z,270.50
2019-03-22T07:02:30.329Z,239.77
2019-03-22T07:05:00.360Z,248.47
2019-03-22T07:07:30.307Z,208.20
2019-03-22T07:10:00.377Z,181.93
2019-03-22T07:12:30.379Z,213.27
2019-03-22T07:15:00.384Z,212.73
2019-03-22T07:17:30.440Z,246.43
2019-03-22T07:20:00.436Z,152.63
2019-03-22T07:22:30.435Z,164.83
2019-03-22T07:25:01.370Z,174.27
2019-03-22T07:27:31.418Z,115.60
2019-03-22T07:30:01.380Z,138.70
2019-03-22T07:32:31.482Z,116.00
2019-03-22T07:35:01.864Z,140.80
2019-03-22T07:37:32.266Z,138.47
2019-03-22T07:40:02.258Z,108.90
2019-03-22T07:42:33.038Z,117.63
2019-03-22T07:45:03.025Z,116.87
2019-03-22T07:47:33.128Z,101.23
2019-03-22T07:50:03.398Z,101.17
2019-03-22T07:52:33.393Z,100.67
2019-03-22T07:55:03.458Z,104.50
2019-03-22T07:57:33.490Z,100.87
2019-03-22T08:00:03.602Z,102.13
2019-03-22T08:02:33.614Z,95.83
2019-03-22T08:05:03.776Z,95.20
2019-03-22T08:07:33.753Z,91.03
2019-03-22T08:10:03.989Z,92.57
2019-03-22T08:12:34.068Z,92.20
2019-03-22T08:15:04.594Z,92.43
2019-03-22T08:17:34.630Z,91.27
2019-03-22T08:20:05.226Z,102.60
2019-03-22T08:22:35.376Z,105.20
2019-03-22T08:25:05.653Z,114.20
2019-03-22T08:27:36.217Z,104.23
2019-03-22T08:30:07.334Z,112.17
2019-03-22T08:32:38.351Z,115.53
2019-03-22T08:35:08.844Z,95.70
2019-03-22T08:37:56.925Z,107.57
2019-03-22T08:40:31.717Z,101.77
2019-03-22T08:43:03.174Z,107.17
2019-03-22T08:45:33.345Z,101.70
2019-03-22T08:48:03.382Z,97.23
2019-03-22T08:50:33.459Z,101.93
2019-03-22T08:53:03.543Z,103.73
2019-03-22T08:55:34.019Z,98.70
2019-03-22T08:58:04.077Z,95.77
2019-03-22T09:00:39.590Z,101.17
2019-03-22T09:03:05.876Z,101.23
2019-03-22T09:05:36.221Z,90.30
2019-03-22T09:08:06.309Z,93.27
2019-03-22T09:10:36.430Z,92.47
2019-03-22T09:13:06.520Z,92.80
2019-03-22T09:15:41.020Z,88.80
2019-03-22T09:18:08.189Z,89.93
2019-03-22T09:20:38.248Z,85.60
2019-03-22T09:23:08.265Z,90.37
2019-03-22T09:25:38.325Z,79.43
2019-03-22T09:28:10.346Z,86.00
2019-03-22T09:30:40.487Z,87.00
2019-03-22T09:33:13.294Z,77.60
2019-03-22T09:35:43.377Z,69.10
2019-03-22T09:38:13.587Z,71.83
2019-03-22T09:40:43.863Z,68.07
2019-03-22T09:43:13.948Z,59.90
2019-03-22T09:45:43.991Z,57.97
2019-03-22T09:48:14.034Z,62.67
2019-03-22T09:50:44.047Z,56.20
2019-03-22T09:53:14.120Z,55.20
2019-03-22T09:55:44.156Z,49.57
2019-03-22T09:58:14.200Z,54.30
2019-03-22T10:00:44.304Z,52.30
2019-03-22T10:03:14.354Z,54.67
2019-03-22T10:05:44.380Z,46.17
2019-03-22T10:08:14.431Z,51.43
2019-03-22T10:10:44.461Z,47.50
2019-03-22T10:13:14.510Z,41.20
2019-03-22T10:15:44.981Z,44.23
2019-03-22T10:18:14.997Z,42.87
2019-03-22T10:20:45.185Z,42.47
2019-03-22T10:23:15.211Z,39.57
2019-03-22T10:25:45.249Z,44.37
2019-03-22T10:28:15.262Z,42.67
2019-03-22T10:30:45.331Z,36.07
2019-03-22T10:33:22.748Z,35.87
2019-03-22T10:35:46.968Z,38.87
2019-03-22T10:38:30.659Z,38.23
2019-03-22T10:40:48.597Z,35.17
2019-03-22T10:43:19.078Z,38.07
2019-03-22T10:45:49.147Z,34.93
2019-03-22T10:48:19.069Z,37.90
2019-03-22T10:50:49.177Z,38.07
2019-03-22T10:53:19.685Z,36.30
2019-03-22T10:55:50.003Z,36.43
2019-03-22T10:58:21.461Z,39.07
2019-03-22T11:00:51.637Z,33.90
2019-03-22T11:03:21.645Z,35.30
2019-03-22T11:05:51.597Z,32.60
2019-03-22T11:08:21.700Z,36.60
2019-03-22T11:10:51.662Z,34.17
2019-03-22T11:13:21.714Z,35.40
2019-03-22T11:15:51.768Z,32.50
2019-03-22T11:18:21.860Z,33.00
2019-03-22T11:20:51.924Z,33.80
2019-03-22T11:23:22.337Z,30.10
2019-03-22T11:25:52.354Z,30.87
2019-03-22T11:28:22.614Z,32.60
2019-03-22T11:30:52.840Z,34.23
2019-03-22T11:33:22.989Z,30.40
2019-03-22T11:35:52.926Z,33.60
2019-03-22T11:38:23.079Z,30.97
2019-03-22T11:40:53.148Z,27.37
2019-03-22T11:43:23.147Z,27.90
2019-03-22T11:45:53.173Z,34.37
2019-03-22T11:48:23.142Z,28.90
2019-03-22T11:50:53.426Z,24.30
2019-03-22T11:53:24.798Z,25.27
2019-03-22T11:55:54.773Z,24.47
2019-03-22T11:58:25.098Z,25.80
2019-03-22T12:00:55.491Z,18.47
2019-03-22T12:03:25.646Z,21.30
2019-03-22T12:05:55.627Z,15.50
2019-03-22T12:08:26.119Z,15.37
2019-03-22T12:10:56.134Z,20.17
2019-03-22T12:13:26.022Z,16.10
2019-03-22T12:15:56.061Z,14.33
2019-03-22T12:18:25.981Z,22.07
2019-03-22T12:20:56.682Z,24.97
2019-03-22T12:23:27.238Z,18.27
2019-03-22T12:25:57.346Z,21.63
2019-03-22T12:28:27.324Z,14.87
2019-03-22T12:30:57.938Z,14.57
2019-03-22T12:33:28.602Z,12.93
2019-03-22T12:35:59.137Z,18.13
2019-03-22T12:38:29.173Z,17.63
2019-03-22T12:40:59.203Z,17.93
2019-03-22T12:43:29.195Z,13.97
2019-03-22T12:45:59.136Z,14.60
2019-03-22T12:48:29.158Z,16.73
2019-03-22T12:50:59.109Z,16.70
2019-03-22T12:53:29.445Z,16.00
2019-03-22T12:55:59.410Z,14.90
2019-03-22T12:58:29.417Z,13.80
2019-03-22T13:00:59.903Z,15.80
2019-03-22T13:03:29.915Z,17.60
2019-03-22T13:05:59.889Z,13.43
2019-03-22T13:08:29.889Z,13.00
2019-03-22T13:10:59.902Z,15.13
2019-03-22T13:13:29.877Z,15.73
2019-03-22T13:15:59.861Z,13.53
2019-03-22T13:18:29.953Z,14.77
2019-03-22T13:20:59.904Z,13.20
2019-03-22T13:23:30.081Z,13.37
2019-03-22T13:26:00.874Z,11.70
2019-03-22T13:28:30.964Z,13.20
2019-03-22T13:31:01.222Z,12.53
2019-03-22T13:33:31.217Z,12.20
2019-03-22T13:36:01.842Z,14.60
2019-03-22T13:38:31.822Z,12.53
2019-03-22T13:41:01.815Z,12.43
2019-03-22T13:43:31.848Z,12.60
2019-03-22T13:46:02.004Z,12.70
2019-03-22T13:48:32.015Z,11.00
2019-03-22T13:51:02.058Z,11.83
2019-03-22T13:53:32.398Z,15.90
2019-03-22T13:56:02.766Z,14.43
2019-03-22T13:58:32.894Z,14.33
2019-03-22T14:01:02.873Z,16.80
2019-03-22T14:03:33.290Z,13.47
2019-03-22T14:06:03.376Z,14.67
2019-03-22T14:08:33.665Z,12.40
2019-03-22T14:11:03.843Z,13.20
2019-03-22T14:13:33.812Z,16.27
2019-03-22T14:16:04.033Z,14.47
2019-03-22T14:18:33.966Z,13.90
2019-03-22T14:21:03.900Z,14.00
2019-03-22T14:23:34.278Z,15.50
2019-03-22T14:26:04.265Z,12.83
2019-03-22T14:28:34.205Z,12.73
2019-03-22T14:31:04.121Z,17.33
2019-03-22T14:33:34.235Z,13.70
2019-03-22T14:36:04.754Z,12.53
2019-03-22T14:38:34.764Z,13.80
2019-03-22T14:41:04.779Z,17.03
2019-03-22T14:43:34.834Z,17.73
2019-03-22T14:46:04.789Z,17.40
2019-03-22T14:48:34.653Z,13.30
2019-03-22T14:51:04.565Z,15.43
2019-03-22T14:53:34.472Z,15.90
2019-03-22T14:56:04.448Z,15.17
2019-03-22T14:58:34.565Z,13.13
2019-03-22T15:01:04.853Z,14.03
2019-03-22T15:03:35.118Z,14.70
2019-03-22T15:06:04.986Z,13.07
2019-03-22T15:08:35.420Z,12.83
2019-03-22T15:11:05.662Z,16.53
2019-03-22T15:13:44.604Z,16.37
2019-03-22T15:16:33.579Z,15.93
2019-03-22T15:19:21.802Z,15.40
2019-03-22T15:22:10.685Z,14.30
2019-03-22T15:24:54.358Z,16.03
2019-03-22T15:27:49.679Z,15.80
2019-03-22T15:30:42.589Z,14.07
2019-03-22T15:33:34.477Z,16.07
2019-03-22T15:36:23.924Z,14.90
2019-03-22T15:39:11.799Z,14.90
2019-03-22T15:41:42.497Z,16.50
2019-03-22T15:44:12.620Z,14.23
2019-03-22T15:46:42.724Z,19.30
2019-03-22T15:49:12.685Z,18.33
2019-03-22T15:51:42.589Z,16.83
2019-03-22T15:54:12.964Z,15.57
2019-03-22T15:56:42.995Z,18.63
2019-03-22T15:59:13.034Z,17.20
2019-03-22T16:01:43.564Z,18.33
2019-03-22T16:04:13.566Z,17.67
2019-03-22T16:06:44.389Z,14.70
2019-03-22T16:09:14.429Z,16.03
2019-03-22T16:11:44.606Z,15.40
2019-03-22T16:14:14.798Z,16.50
2019-03-22T16:16:44.737Z,17.40
2019-03-22T16:19:14.739Z,19.43
2019-03-22T16:21:44.690Z,18.20
2019-03-22T16:24:14.758Z,16.03
2019-03-22T16:26:44.843Z,19.43
2019-03-22T16:29:15.183Z,16.50
2019-03-22T16:31:45.145Z,18.13
2019-03-22T16:34:15.141Z,17.13
2019-03-22T16:36:45.464Z,17.03
2019-03-22T16:39:15.521Z,17.23
2019-03-22T16:41:45.508Z,18.00
2019-03-22T16:44:15.477Z,19.17
2019-03-22T16:46:45.786Z,18.27
2019-03-22T16:49:15.820Z,20.80
2019-03-22T16:51:46.247Z,16.70
2019-03-22T16:54:16.221Z,15.60
2019-03-22T16:56:46.266Z,17.40
2019-03-22T16:59:16.315Z,14.30
2019-03-22T17:01:46.258Z,16.20
2019-03-22T17:04:16.244Z,13.50
2019-03-22T17:06:46.270Z,15.83
2019-03-22T17:09:16.338Z,16.07
2019-03-22T17:11:46.366Z,16.73
2019-03-22T17:14:16.343Z,18.17
2019-03-22T17:16:46.475Z,15.33
2019-03-22T17:19:16.501Z,17.20
2019-03-22T17:21:46.462Z,16.97
2019-03-22T17:24:16.487Z,19.27
2019-03-22T17:26:46.504Z,20.87
2019-03-22T17:29:16.920Z,17.90
2019-03-22T17:31:46.874Z,22.40
2019-03-22T17:34:16.858Z,17.37
2019-03-22T17:36:46.829Z,19.37
2019-03-22T17:39:17.465Z,18.00
2019-03-22T17:41:47.743Z,19.60
2019-03-22T17:44:18.254Z,18.40
2019-03-22T17:46:48.213Z,17.10
2019-03-22T17:49:18.218Z,15.33
2019-03-22T17:51:48.229Z,16.00
2019-03-22T17:54:18.337Z,17.03
2019-03-22T17:56:48.337Z,16.30
2019-03-22T17:59:18.510Z,17.40
2019-03-22T18:01:48.943Z,17.33
2019-03-22T18:04:24.093Z,22.17
2019-03-22T18:06:50.937Z,18.30
2019-03-22T18:09:21.006Z,17.40
2019-03-22T18:11:51.119Z,20.10
2019-03-22T18:14:21.763Z,18.93
2019-03-22T18:16:52.126Z,23.07
2019-03-22T18:19:22.194Z,19.60
2019-03-22T18:21:52.247Z,15.63
2019-03-22T18:24:22.574Z,17.33
2019-03-22T18:26:52.546Z,19.13
2019-03-22T18:29:22.501Z,21.87
2019-03-22T18:31:52.450Z,14.07
2019-03-22T18:34:22.481Z,17.97
2019-03-22T18:36:52.560Z,16.37
2019-03-22T18:39:22.598Z,20.80
2019-03-22T18:41:52.934Z,19.40
2019-03-22T18:44:22.956Z,21.50
2019-03-22T18:46:52.933Z,18.70
2019-03-22T18:49:22.869Z,19.73
2019-03-22T18:51:52.920Z,17.20
2019-03-22T18:54:23.049Z,19.77
2019-03-22T18:56:53.193Z,18.70
2019-03-22T18:59:23.574Z,18.47
2019-03-22T19:01:53.557Z,14.20
2019-03-22T19:04:23.550Z,19.47
2019-03-22T19:06:53.588Z,19.50
2019-03-22T19:09:23.569Z,23.57
2019-03-22T19:11:53.576Z,18.63
2019-03-22T19:14:23.591Z,26.17
2019-03-22T19:16:53.582Z,20.43
2019-03-22T19:19:23.583Z,22.40
2019-03-22T19:21:54.051Z,23.23
2019-03-22T19:24:23.974Z,22.20
2019-03-22T19:26:53.999Z,25.77
2019-03-22T19:29:24.429Z,18.87
2019-03-22T19:31:54.317Z,26.47
2019-03-22T19:34:24.358Z,26.30
2019-03-22T19:36:54.344Z,25.90
2019-03-22T19:39:24.724Z,27.60
2019-03-22T19:41:54.704Z,24.47
2019-03-22T19:44:24.729Z,24.10
2019-03-22T19:46:54.699Z,28.07
2019-03-22T19:49:24.669Z,28.80
2019-03-22T19:51:55.012Z,27.47
2019-03-22T19:54:25.026Z,28.20
2019-03-22T19:56:55.017Z,25.70
2019-03-22T19:59:24.942Z,24.93
2019-03-22T20:01:54.993Z,30.13
2019-03-22T20:04:25.342Z,24.50
2019-03-22T20:06:55.360Z,28.13
2019-03-22T20:09:25.343Z,28.30
2019-03-22T20:11:55.403Z,28.43
2019-03-22T20:14:25.720Z,27.10
2019-03-22T20:16:55.753Z,26.40
2019-03-22T20:19:26.027Z,22.90
2019-03-22T20:21:56.043Z,26.93
2019-03-22T20:24:26.032Z,27.23
2019-03-22T20:26:56.021Z,27.97
2019-03-22T20:29:26.007Z,25.77
2019-03-22T20:31:56.054Z,31.30
2019-03-22T20:34:26.031Z,27.03
2019-03-22T20:36:56.430Z,26.27
2019-03-22T20:39:26.434Z,24.23
2019-03-22T20:41:56.419Z,27.57
2019-03-22T20:44:33.900Z,25.37
2019-03-22T20:46:58.043Z,24.53
2019-03-22T20:49:28.037Z,27.07
2019-03-22T20:51:58.157Z,22.80
2019-03-22T20:54:28.094Z,26.60
2019-03-22T20:56:58.111Z,28.93
2019-03-22T20:59:28.086Z,26.20
2019-03-22T21:01:58.355Z,27.23
2019-03-22T21:04:28.725Z,30.60
2019-03-22T21:06:59.097Z,26.47
2019-03-22T21:09:29.099Z,28.63
2019-03-22T21:11:59.054Z,27.10
2019-03-22T21:14:30.790Z,28.83
2019-03-22T21:17:00.734Z,26.67
2019-03-22T21:19:31.117Z,26.20
2019-03-22T21:22:01.554Z,29.90
2019-03-22T21:24:31.591Z,28.20
2019-03-22T21:27:01.630Z,37.80
2019-03-22T21:29:31.646Z,37.10
2019-03-22T21:32:01.990Z,29.90
2019-03-22T21:34:32.001Z,32.80
2019-03-22T21:37:02.310Z,36.37
2019-03-22T21:39:32.581Z,35.73
2019-03-22T21:42:03.702Z,33.40
2019-03-22T21:44:33.688Z,33.83
2019-03-22T21:47:03.711Z,40.43
2019-03-22T21:49:33.705Z,36.93
2019-03-22T21:52:03.698Z,39.00
2019-03-22T21:54:34.024Z,40.20
2019-03-22T21:57:04.009Z,34.30
2019-03-22T21:59:34.342Z,38.17
2019-03-22T22:02:04.365Z,38.07
2019-03-22T22:04:34.754Z,37.53
2019-03-22T22:07:05.637Z,41.63
2019-03-22T22:09:35.686Z,48.97
2019-03-22T22:12:06.095Z,44.70
2019-03-22T22:14:40.786Z,38.23
2019-03-22T22:17:08.231Z,37.20
2019-03-22T22:19:38.162Z,40.20
2019-03-22T22:22:08.252Z,40.47
2019-03-22T22:24:38.287Z,41.47
2019-03-22T22:27:13.718Z,42.10
2019-03-22T22:29:39.866Z,39.53
2019-03-22T22:32:09.982Z,43.70
2019-03-22T22:34:40.000Z,40.97
2019-03-22T22:37:10.044Z,40.23
2019-03-22T22:39:40.037Z,42.70
2019-03-22T22:42:10.690Z,44.13
2019-03-22T22:44:40.663Z,38.40
2019-03-22T22:47:10.618Z,39.63
2019-03-22T22:49:40.629Z,39.97
2019-03-22T22:52:10.660Z,37.70
2019-03-22T22:54:40.994Z,44.13
2019-03-22T22:57:11.317Z,49.70
2019-03-22T22:59:42.053Z,48.10
2019-03-22T23:02:12.133Z,43.93
2019-03-22T23:04:42.601Z,48.43
2019-03-22T23:07:12.770Z,45.20
2019-03-22T23:09:42.753Z,46.00
2019-03-22T23:12:13.369Z,44.47
2019-03-22T23:14:43.756Z,52.37
2019-03-22T23:17:13.751Z,48.90
2019-03-22T23:19:43.758Z,59.20
2019-03-22T23:22:13.740Z,55.47
2019-03-22T23:24:43.970Z,60.50
2019-03-22T23:27:13.958Z,59.13
2019-03-22T23:29:43.994Z,58.73
2019-03-22T23:32:13.938Z,57.37
2019-03-22T23:34:43.917Z,57.70
2019-03-22T23:37:14.361Z,56.83
2019-03-22T23:39:44.710Z,70.63
2019-03-22T23:42:15.363Z,61.20
2019-03-22T23:44:45.255Z,71.60
2019-03-22T23:47:15.269Z,76.53
2019-03-22T23:49:45.667Z,74.40
2019-03-22T23:52:15.687Z,73.00
2019-03-22T23:54:46.091Z,80.97
2019-03-22T23:57:16.066Z,76.17
2019-03-22T23:59:45.986Z,83.73
